Time;durP1;ratioP1;P1;durP2;ratioP2;P2;SDS_P1;SDS_P2;PMS_P1;PMS_P2;Temp;Humidity;BMP_temperature;BMP_pressure;BME280_temperature;BME280_humidity;BME280_pressure;Samples;Min_cycle;Max_cycle;Signal;HPM_P1;HPM_P2
2022/05/19 00:01:31;;;;;;;;;;;;;;;7.51;55.95;102226.80;1723645;81;20764;-86
2022/05/19 00:03:58;;;;;;;;;;;;;;;7.51;55.66;102228.52;1723774;82;21486;-87
2022/05/19 00:06:24;;;;;;;;;;;;;;;7.50;55.46;102222.77;1723783;81;20225;-87
2022/05/19 00:08:50;;;;;;;;;;;;;;;7.48;55.70;102222.66;1709768;81;21589;-86
2022/05/19 00:11:17;;;;;;;;;;;;;;;7.47;55.74;102221.25;1687617;83;20204;-86
2022/05/19 00:13:44;;;;;;;;;;;;;;;7.47;55.44;102219.94;1683524;84;20232;-86
2022/05/19 00:16:10;;;;;;;;;;;;;;;7.44;55.52;102220.67;1693783;84;20401;-86
2022/05/19 00:18:37;;;;;;;;;;;;;;;7.41;55.61;102211.30;1688573;83;20483;-85
2022/05/19 00:21:03;;;;;;;;;;;;;;;7.38;55.68;102213.34;1693573;84;23127;-89
2022/05/19 00:23:32;;;;;;;;;;;;;;;7.36;55.78;102212.34;1693972;83;20204;-87
2022/05/19 00:25:58;;;;;;;;;;;;;;;7.33;55.85;102206.91;1684654;84;20243;-87
2022/05/19 00:28:24;;;;;;;;;;;;;;;7.31;55.84;102210.25;1727963;81;20520;-86
2022/05/19 00:30:51;;;;;;;;;;;;;;;7.28;55.96;102207.05;1705627;83;20216;-87
2022/05/19 00:33:17;;;;;;;;;;;;;;;7.28;56.12;102205.74;1693108;84;21788;-87
2022/05/19 00:35:47;;;;;;;;;;;;;;;7.26;56.28;102207.33;1697789;82;20221;-87
2022/05/19 00:38:12;;;;;;;;;;;;;;;7.25;56.41;102206.85;1686946;83;20513;-86
2022/05/19 00:40:39;;;;;;;;;;;;;;;7.23;56.47;102202.34;1727830;82;21318;-87
2022/05/19 00:43:06;;;;;;;;;;;;;;;7.22;56.56;102203.14;1710660;82;20998;-87
2022/05/19 00:45:46;;;;;;;;;;;;;;;7.19;56.47;102209.09;1729554;81;22310;-85
2022/05/19 00:48:20;;;;;;;;;;;;;;;7.18;56.56;102212.52;1741111;80;20357;-85
2022/05/19 00:50:55;;;;;;;;;;;;;;;7.16;56.64;102205.86;1741072;82;20915;-85
2022/05/19 00:53:30;;;;;;;;;;;;;;;7.16;56.74;102204.55;1723503;82;20224;-84
2022/05/19 00:55:59;;;;;;;;;;;;;;;7.15;56.91;102197.91;1723358;83;20222;-85
2022/05/19 00:58:32;;;;;;;;;;;;;;;7.14;56.78;102201.35;1723223;83;21789;-85
2022/05/19 01:00:59;;;;;;;;;;;;;;;7.13;56.81;102200.84;1730890;81;20219;-85
2022/05/19 01:03:25;;;;;;;;;;;;;;;7.10;56.97;102195.02;1721121;82;20228;-85
2022/05/19 01:05:57;;;;;;;;;;;;;;;7.10;57.06;102194.12;1711221;82;21667;-85
2022/05/19 01:08:35;;;;;;;;;;;;;;;7.07;57.05;102187.38;1730156;82;20223;-85
2022/05/19 01:11:02;;;;;;;;;;;;;;;7.04;57.19;102186.80;1721780;83;22617;-86
2022/05/19 01:13:31;;;;;;;;;;;;;;;7.04;57.29;102184.55;1712701;83;20297;-86
2022/05/19 01:15:58;;;;;;;;;;;;;;;7.03;57.17;102183.66;1713400;83;20210;-86
2022/05/19 01:18:26;;;;;;;;;;;;;;;7.02;57.14;102180.56;1714799;83;20314;-85
2022/05/19 01:20:56;;;;;;;;;;;;;;;7.00;56.76;102171.67;1739015;82;20189;-85
2022/05/19 01:23:43;;;;;;;;;;;;;;;6.98;56.40;102162.44;1718886;83;22544;-85
2022/05/19 01:26:29;;;;;;;;;;;;;;;6.97;56.32;102159.72;1746702;81;20929;-85
2022/05/19 01:28:57;;;;;;;;;;;;;;;6.98;56.43;102161.14;1746524;82;20740;-85
2022/05/19 01:31:38;;;;;;;;;;;;;;;6.99;56.25;102160.72;1740036;82;20522;-85
2022/05/19 01:34:07;;;;;;;;;;;;;;;6.99;56.07;102163.34;1742787;79;20229;-86
2022/05/19 01:36:35;;;;;;;;;;;;;;;6.99;56.13;102155.07;1704025;82;20365;-85
2022/05/19 01:39:06;;;;;;;;;;;;;;;7.01;56.25;102153.45;1739415;82;20225;-85
2022/05/19 01:41:59;;;;;;;;;;;;;;;7.01;56.18;102159.99;1729823;82;20210;-85
2022/05/19 01:44:51;;;;;;;;;;;;;;;7.00;56.12;102155.97;1708509;82;20413;-85
2022/05/19 01:47:23;;;;;;;;;;;;;;;6.99;56.16;102155.07;1688049;84;20870;-86
2022/05/19 01:49:58;;;;;;;;;;;;;;;6.99;56.21;102154.17;1705998;82;21738;-85
2022/05/19 01:52:36;;;;;;;;;;;;;;;6.99;56.21;102149.84;1707943;83;20912;-85
2022/05/19 01:55:19;;;;;;;;;;;;;;;6.99;56.05;102154.17;1697264;83;20213;-85
2022/05/19 01:57:58;;;;;;;;;;;;;;;6.98;56.11;102154.97;1669670;84;20524;-85
2022/05/19 02:00:25;;;;;;;;;;;;;;;6.98;56.24;102150.66;1649687;85;20768;-86
2022/05/19 02:02:55;;;;;;;;;;;;;;;6.97;56.12;102145.33;1700702;84;21755;-85
2022/05/19 02:05:37;;;;;;;;;;;;;;;6.97;56.03;102144.02;1678040;83;20912;-86
2022/05/19 02:08:06;;;;;;;;;;;;;;;6.96;56.00;102145.73;1682599;84;20222;-85
2022/05/19 02:10:36;;;;;;;;;;;;;;;6.95;56.10;102147.84;1670861;85;20495;-85
2022/05/19 02:13:03;;;;;;;;;;;;;;;6.95;56.06;102151.77;1673691;84;20208;-86
2022/05/19 02:15:30;;;;;;;;;;;;;;;6.95;56.02;102149.15;1663828;84;21745;-86
2022/05/19 02:17:56;;;;;;;;;;;;;;;6.93;56.08;102148.16;1668921;85;20945;-87
2022/05/19 02:20:24;;;;;;;;;;;;;;;6.97;55.87;102151.87;1688024;84;20844;-86
2022/05/19 02:22:50;;;;;;;;;;;;;;;6.97;55.63;102143.60;1710075;83;20391;-85
2022/05/19 02:25:35;;;;;;;;;;;;;;;6.99;55.72;102142.39;1694199;84;20230;-86
2022/05/19 02:28:04;;;;;;;;;;;;;;;7.01;55.44;102144.28;1707340;83;21736;-86
2022/05/19 02:30:35;;;;;;;;;;;;;;;7.05;55.34;102140.56;1707613;83;20213;-86
2022/05/19 02:33:01;;;;;;;;;;;;;;;7.07;55.25;102142.86;1707920;84;20204;-86
2022/05/19 02:35:28;;;;;;;;;;;;;;;7.10;55.09;102141.75;1708207;84;21406;-86
2022/05/19 02:37:55;;;;;;;;;;;;;;;7.13;55.21;102141.55;1688317;84;20203;-86
2022/05/19 02:40:23;;;;;;;;;;;;;;;7.16;55.19;102136.89;1700475;82;21787;-85
2022/05/19 02:42:50;;;;;;;;;;;;;;;7.20;55.01;102141.08;1693469;84;20240;-85
2022/05/19 02:45:17;;;;;;;;;;;;;;;7.26;54.96;102139.66;1692641;84;20958;-86
2022/05/19 02:47:44;;;;;;;;;;;;;;;7.31;54.85;102140.84;1693076;84;20564;-86
2022/05/19 02:50:10;;;;;;;;;;;;;;;7.36;54.76;102138.10;1689984;83;20252;-86
2022/05/19 02:52:37;;;;;;;;;;;;;;;7.40;54.65;102127.89;1697750;84;22514;-86
2022/05/19 02:55:04;;;;;;;;;;;;;;;7.54;54.65;102135.66;1699036;83;20844;-86
2022/05/19 02:57:33;;;;;;;;;;;;;;;7.65;54.28;102129.75;1696651;84;20212;-86
2022/05/19 02:59:59;;;;;;;;;;;;;;;7.78;54.00;102137.11;1697690;84;20420;-86
2022/05/19 03:02:25;;;;;;;;;;;;;;;7.93;53.62;102141.03;1694716;83;20605;-86
2022/05/19 03:04:52;;;;;;;;;;;;;;;8.11;53.37;102137.69;1693069;83;21743;-86
2022/05/19 03:07:19;;;;;;;;;;;;;;;8.28;53.59;102138.22;1703302;83;20276;-85
2022/05/19 03:09:46;;;;;;;;;;;;;;;8.46;53.52;102137.48;1693367;83;20958;-86
2022/05/19 03:12:13;;;;;;;;;;;;;;;8.66;53.58;102128.09;1686772;83;20422;-87
2022/05/19 03:14:48;;;;;;;;;;;;;;;8.92;53.68;102130.41;1687686;84;20788;-86
2022/05/19 03:17:16;;;;;;;;;;;;;;;9.14;53.22;102135.47;1691861;84;21598;-86
2022/05/19 03:19:42;;;;;;;;;;;;;;;9.37;53.22;102127.92;1692852;84;20225;-87
2022/05/19 03:22:09;;;;;;;;;;;;;;;9.61;53.20;102128.26;1695079;84;20226;-86
2022/05/19 03:24:36;;;;;;;;;;;;;;;9.88;53.08;102127.03;1685109;83;20596;-86
2022/05/19 03:27:05;;;;;;;;;;;;;;;10.18;52.99;102132.42;1687578;83;20186;-86
2022/05/19 03:29:31;;;;;;;;;;;;;;;10.49;52.79;102130.86;1680688;84;21946;-85
2022/05/19 03:31:59;;;;;;;;;;;;;;;10.88;52.52;102126.55;1699501;84;20212;-86
2022/05/19 03:34:25;;;;;;;;;;;;;;;11.31;51.94;102122.31;1690026;83;20218;-86
2022/05/19 03:36:52;;;;;;;;;;;;;;;11.84;51.68;102122.41;1694302;84;20514;-86
2022/05/19 03:39:47;;;;;;;;;;;;;;;;;;;;;
2022/05/19 03:42:07;;;;;;;;;;;;;;;14.17;52.13;102101.50;1675156;84;20676;-86
2022/05/19 03:44:40;;;;;;;;;;;;;;;15.98;50.63;102121.22;1695030;83;20219;-86
2022/05/19 03:47:08;;;;;;;;;;;;;;;17.09;49.03;102110.88;1712694;83;20215;-87
2022/05/19 03:49:39;;;;;;;;;;;;;;;17.96;47.53;102108.05;1711414;83;21808;-87
2022/05/19 03:52:18;;;;;;;;;;;;;;;18.45;46.38;102101.23;1709988;83;20773;-87
2022/05/19 03:54:45;;;;;;;;;;;;;;;18.76;45.22;102106.52;1700238;82;21737;-86
2022/05/19 03:57:23;;;;;;;;;;;;;;;19.00;44.36;102106.41;1677813;83;20184;-85
2022/05/19 03:59:49;;;;;;;;;;;;;;;19.27;43.87;102109.81;1712354;83;20604;-85
2022/05/19 04:02:19;;;;;;;;;;;;;;;19.76;43.24;102113.44;1707538;83;21047;-85
2022/05/19 04:04:45;;;;;;;;;;;;;;;19.98;42.49;102103.38;1691716;83;20226;-86
2022/05/19 04:07:15;;;;;;;;;;;;;;;20.18;42.13;102106.20;1713168;83;21771;-87
2022/05/19 04:09:52;;;;;;;;;;;;;;;20.42;41.41;102105.00;1708250;83;21107;-87
2022/05/19 04:12:22;;;;;;;;;;;;;;;20.48;41.00;102102.39;1693638;83;20211;-86
2022/05/19 04:14:49;;;;;;;;;;;;;;;20.50;40.46;102104.63;1705043;83;20355;-84
2022/05/19 04:17:25;;;;;;;;;;;;;;;20.35;40.12;102100.97;1714197;83;20232;-85
2022/05/19 04:19:46;;;;;;;;;;;;;;;19.97;39.82;102100.69;1687604;83;22611;-84
2022/05/19 04:22:15;;;;;;;;;;;;;;;19.71;39.75;102096.02;1710395;82;20222;-84
2022/05/19 04:24:48;;;;;;;;;;;;;;;19.90;40.28;102102.44;1718245;83;20229;-85
2022/05/19 04:31:52;;;;;;;;;;;;;;;;;;;;;
2022/05/19 04:51:06;;;;;;;;;;;;;;;27.68;32.88;102093.45;1495534;94;20200;-85
2022/05/19 04:53:33;;;;;;;;;;;;;;;27.85;31.61;102095.25;1492802;95;21084;-85
2022/05/19 04:55:59;;;;;;;;;;;;;;;27.64;30.56;102098.05;1495820;95;20233;-86
2022/05/19 04:58:26;;;;;;;;;;;;;;;27.57;30.49;102102.30;1497863;95;21156;-92
2022/05/19 05:00:53;;;;;;;;;;;;;;;27.75;29.87;102096.44;1494881;95;20550;-85
2022/05/19 05:03:22;;;;;;;;;;;;;;;27.75;29.25;102097.78;1492015;95;21862;-87
2022/05/19 05:05:53;;;;;;;;;;;;;;;27.59;28.84;102097.73;1492322;95;20707;-86
2022/05/19 05:08:19;;;;;;;;;;;;;;;27.54;28.56;102093.81;1496688;95;20258;-86
2022/05/19 05:10:46;;;;;;;;;;;;;;;27.55;28.11;102090.16;1490280;95;20371;-86
2022/05/19 05:13:18;;;;;;;;;;;;;;;27.48;27.88;102092.58;1471596;96;20791;-85
2022/05/19 05:15:43;;;;;;;;;;;;;;;27.52;27.68;102093.84;1512980;93;21964;-85
2022/05/19 05:18:10;;;;;;;;;;;;;;;27.48;27.27;102095.29;1532625;92;20230;-85
2022/05/19 05:20:37;;;;;;;;;;;;;;;27.78;27.40;102098.16;1602036;88;20993;-86
2022/05/19 05:23:03;;;;;;;;;;;;;;;28.18;27.04;102097.16;1666419;84;20559;-86
2022/05/19 05:25:32;;;;;;;;;;;;;;;28.19;26.50;102100.27;1659107;85;20924;-85
2022/05/19 05:28:08;;;;;;;;;;;;;;;28.39;26.43;102101.08;1672668;84;21823;-86
2022/05/19 05:30:36;;;;;;;;;;;;;;;29.08;26.21;102103.13;1674556;84;20206;-86
2022/05/19 05:33:13;;;;;;;;;;;;;;;29.89;25.87;102098.75;1662663;84;20201;-85
2022/05/19 05:35:41;;;;;;;;;;;;;;;29.96;25.17;102059.11;1698995;83;20412;-86
2022/05/19 05:38:08;;;;;;;;;;;;;;;29.14;24.49;102097.55;1708636;80;20480;-85
2022/05/19 05:40:36;;;;;;;;;;;;;;;27.73;24.55;102095.59;1767336;78;22506;-85
2022/05/19 05:43:10;;;;;;;;;;;;;;;26.58;24.65;102089.61;1732716;80;20345;-85
2022/05/19 05:45:36;;;;;;;;;;;;;;;25.60;25.12;102098.56;1775575;80;20217;-85
2022/05/19 05:48:03;;;;;;;;;;;;;;;24.75;25.25;102100.18;1738880;80;21682;-85
2022/05/19 05:50:30;;;;;;;;;;;;;;;24.00;25.36;102095.14;1768424;80;20262;-86
2022/05/19 05:52:58;;;;;;;;;;;;;;;23.39;25.74;102097.86;1787069;80;20315;-85
2022/05/19 05:55:28;;;;;;;;;;;;;;;22.93;25.96;102098.55;1770586;80;20520;-85
2022/05/19 05:57:55;;;;;;;;;;;;;;;22.51;26.23;102107.64;1761137;80;20208;-85
2022/05/19 06:00:21;;;;;;;;;;;;;;;22.12;26.24;102101.44;1760026;79;21182;-85
2022/05/19 06:02:49;;;;;;;;;;;;;;;21.82;26.53;102097.45;1756621;79;20380;-85
2022/05/19 06:05:16;;;;;;;;;;;;;;;21.54;26.64;102103.67;1764676;80;21944;-85
2022/05/19 06:07:42;;;;;;;;;;;;;;;21.35;26.77;102101.84;1731852;81;21199;-86
2022/05/19 06:10:09;;;;;;;;;;;;;;;21.25;26.87;102102.27;1760252;79;20252;-86
2022/05/19 06:12:36;;;;;;;;;;;;;;;21.23;27.06;102100.04;1760879;80;20581;-86
2022/05/19 06:15:03;;;;;;;;;;;;;;;21.10;27.01;102083.50;1760980;80;20761;-86
2022/05/19 06:17:30;;;;;;;;;;;;;;;21.19;27.03;102095.57;1763327;80;21743;-85
2022/05/19 06:19:56;;;;;;;;;;;;;;;21.18;26.93;102093.77;1759409;79;20988;-86
2022/05/19 06:22:23;;;;;;;;;;;;;;;21.09;27.08;102091.95;1757993;79;20967;-86
2022/05/19 06:24:50;;;;;;;;;;;;;;;21.00;27.05;102093.26;1745206;79;20352;-86
2022/05/19 06:27:17;;;;;;;;;;;;;;;20.87;26.92;102089.67;1760642;80;20236;-86
2022/05/19 06:29:43;;;;;;;;;;;;;;;20.78;26.93;102093.20;1760880;80;21886;-86
2022/05/19 06:32:09;;;;;;;;;;;;;;;20.71;26.96;102091.37;1761583;80;20240;-86
2022/05/19 06:34:36;;;;;;;;;;;;;;;20.67;27.12;102088.24;1764831;80;20193;-86
2022/05/19 06:37:03;;;;;;;;;;;;;;;20.69;27.19;102096.28;1760385;80;21642;-86
2022/05/19 06:39:29;;;;;;;;;;;;;;;20.65;27.18;102090.02;1734687;80;20218;-86
2022/05/19 06:42:11;;;;;;;;;;;;;;;20.65;27.36;102087.80;1725822;82;22762;-86
2022/05/19 06:44:35;;;;;;;;;;;;;;;20.59;27.30;102087.29;1719070;81;20815;-86
2022/05/19 06:47:02;;;;;;;;;;;;;;;20.51;27.41;102093.91;1721000;82;20198;-86
2022/05/19 06:49:29;;;;;;;;;;;;;;;20.50;27.62;102084.56;1724957;81;20568;-85
2022/05/19 06:51:55;;;;;;;;;;;;;;;20.54;27.81;102085.91;1721792;82;20236;-86
2022/05/19 06:54:22;;;;;;;;;;;;;;;20.59;27.80;102089.52;1722655;82;22565;-86
2022/05/19 06:56:49;;;;;;;;;;;;;;;20.59;27.84;102085.95;1720653;82;20202;-86
2022/05/19 06:59:16;;;;;;;;;;;;;;;20.59;27.77;102081.94;1722853;82;20335;-86
2022/05/19 07:01:45;;;;;;;;;;;;;;;20.58;27.66;102080.14;1719125;81;20450;-86
2022/05/19 07:04:11;;;;;;;;;;;;;;;20.62;27.94;102078.41;1722918;82;20158;-86
2022/05/19 07:06:38;;;;;;;;;;;;;;;20.70;27.89;102073.97;1723527;81;22648;-86
2022/05/19 07:09:04;;;;;;;;;;;;;;;20.77;27.92;102074.45;1722805;81;20863;-86
2022/05/19 07:11:31;;;;;;;;;;;;;;;20.75;27.86;102054.38;1729826;81;20502;-85
2022/05/19 07:14:02;;;;;;;;;;;;;;;20.92;27.73;102066.47;1722446;81;21015;-85
2022/05/19 07:16:31;;;;;;;;;;;;;;;20.97;27.63;102062.48;1721922;81;20194;-85
2022/05/19 07:21:42;;;;;;;;;;;;;;;21.08;27.30;102066.09;1718650;81;20878;-86
2022/05/19 07:24:14;;;;;;;;;;;;;;;21.16;27.43;102067.44;1720123;81;20222;-86
2022/05/19 07:26:39;;;;;;;;;;;;;;;21.25;27.52;102062.10;1661088;84;20358;-86
2022/05/19 07:29:05;;;;;;;;;;;;;;;21.41;27.63;102063.45;1733136;81;20233;-87
2022/05/19 07:31:32;;;;;;;;;;;;;;;21.52;27.21;102057.23;1722607;81;21273;-86
2022/05/19 07:33:59;;;;;;;;;;;;;;;21.59;26.89;102054.58;1740921;82;20252;-86
2022/05/19 07:36:25;;;;;;;;;;;;;;;21.65;26.61;102052.78;1724164;81;20213;-86
2022/05/19 07:38:53;;;;;;;;;;;;;;;21.74;26.63;102055.91;1752490;80;20599;-86
2022/05/19 07:41:20;;;;;;;;;;;;;;;21.84;26.49;102044.73;1765793;80;20278;-86
2022/05/19 07:43:50;;;;;;;;;;;;;;;21.96;26.49;102042.47;1760352;79;21840;-86
2022/05/19 07:46:16;;;;;;;;;;;;;;;22.07;26.61;102037.98;1773910;79;20269;-86
2022/05/19 07:48:44;;;;;;;;;;;;;;;22.21;26.75;102036.63;1773634;79;20200;-86
2022/05/19 07:51:11;;;;;;;;;;;;;;;22.35;26.68;102033.92;1783436;78;21629;-86
2022/05/19 07:53:40;;;;;;;;;;;;;;;22.40;26.48;102031.66;1781686;79;20316;-86
2022/05/19 07:56:06;;;;;;;;;;;;;;;22.46;26.40;102036.11;1774348;78;21809;-85
2022/05/19 07:58:33;;;;;;;;;;;;;;;22.57;26.34;102030.71;1772194;78;20205;-86
2022/05/19 08:01:00;;;;;;;;;;;;;;;22.68;26.38;102031.09;1750483;79;20179;-86
2022/05/19 08:03:26;;;;;;;;;;;;;;;22.78;26.53;102034.62;1783192;78;20360;-86
2022/05/19 08:05:56;;;;;;;;;;;;;;;22.91;26.56;102031.42;1788583;78;20176;-86
2022/05/19 08:08:21;;;;;;;;;;;;;;;23.05;26.73;102024.67;1751978;79;22733;-86
2022/05/19 08:10:48;;;;;;;;;;;;;;;23.22;26.75;102028.59;1742511;79;20166;-86
2022/05/19 08:16:04;;;;;;;;;;;;;;;23.50;26.53;102027.92;1763040;79;20364;-86
2022/05/19 08:18:30;;;;;;;;;;;;;;;23.56;26.36;102020.25;1772481;79;20158;-86
2022/05/19 08:21:00;;;;;;;;;;;;;;;23.62;26.35;102017.05;1773387;78;21597;-86
2022/05/19 08:23:32;;;;;;;;;;;;;;;23.71;26.37;102013.85;1701599;82;20236;-86
2022/05/19 08:25:59;;;;;;;;;;;;;;;23.84;26.57;102013.73;1772735;79;20904;-86
2022/05/19 08:28:29;;;;;;;;;;;;;;;24.00;26.24;102016.26;1767209;79;20432;-86
2022/05/19 08:31:01;;;;;;;;;;;;;;;24.10;26.21;102019.30;1743159;80;20228;-86
2022/05/19 08:33:27;;;;;;;;;;;;;;;24.17;26.12;102001.27;1769386;79;21777;-86
2022/05/19 08:35:54;;;;;;;;;;;;;;;24.31;26.15;102006.05;1777034;79;20226;-86
2022/05/19 08:38:22;;;;;;;;;;;;;;;24.41;25.87;102001.44;1737992;79;20247;-86
2022/05/19 08:40:54;;;;;;;;;;;;;;;24.55;26.01;102000.84;1772789;79;20387;-86
2022/05/19 08:43:23;;;;;;;;;;;;;;;24.73;26.11;101992.95;1777690;79;20203;-86
2022/05/19 08:45:52;;;;;;;;;;;;;;;24.92;25.93;101984.14;1775277;79;21174;-86
2022/05/19 08:48:21;;;;;;;;;;;;;;;25.04;25.83;101979.05;1784784;78;20349;-86
2022/05/19 08:51:03;;;;;;;;;;;;;;;25.14;25.72;101979.31;1770410;79;20835;-87
2022/05/19 08:53:31;;;;;;;;;;;;;;;25.21;25.78;101974.27;1777397;79;20401;-86
2022/05/19 08:56:00;;;;;;;;;;;;;;;25.32;25.58;101970.52;1782589;79;20242;-86
2022/05/19 08:58:46;;;;;;;;;;;;;;;25.35;25.36;101971.83;1755394;79;21758;-86
2022/05/19 09:01:31;;;;;;;;;;;;;;;25.43;25.52;101971.22;1769042;79;20234;-85
2022/05/19 09:04:18;;;;;;;;;;;;;;;25.51;25.77;101972.43;1766840;78;20243;-86
2022/05/19 09:10:05;;;;;;;;;;;;;;;25.25;25.77;101932.49;1780225;79;20216;-86
2022/05/19 09:12:33;;;;;;;;;;;;;;;25.47;25.89;101973.41;1783261;79;22093;-85
2022/05/19 09:15:00;;;;;;;;;;;;;;;25.44;25.76;101964.05;1777076;78;20250;-87
2022/05/19 09:17:28;;;;;;;;;;;;;;;25.36;25.86;101957.45;1776009;79;20240;-87
2022/05/19 09:20:04;;;;;;;;;;;;;;;25.33;25.88;101963.76;1778103;79;20393;-87
2022/05/19 09:22:33;;;;;;;;;;;;;;;25.32;25.90;101962.43;1780090;79;20270;-86
2022/05/19 09:25:00;;;;;;;;;;;;;;;25.32;25.81;101963.78;1779318;79;21715;-86
2022/05/19 09:27:27;;;;;;;;;;;;;;;25.31;25.82;101956.16;1770464;79;20186;-86
2022/05/19 09:29:54;;;;;;;;;;;;;;;25.32;25.80;101949.88;1773616;79;20239;-86
2022/05/19 09:32:34;;;;;;;;;;;;;;;25.28;25.61;101956.20;1740257;80;20636;-85
2022/05/19 09:35:15;;;;;;;;;;;;;;;25.33;25.57;101950.75;1767570;79;20201;-86
2022/05/19 09:37:44;;;;;;;;;;;;;;;25.41;25.71;101945.67;1764879;79;21970;-85
2022/05/19 09:40:14;;;;;;;;;;;;;;;25.56;26.00;101947.16;1747577;80;21078;-86
2022/05/19 09:42:53;;;;;;;;;;;;;;;25.63;25.64;101948.42;1745153;81;20559;-86
2022/05/19 09:45:21;;;;;;;;;;;;;;;25.63;25.60;101943.91;1738616;79;20544;-86
2022/05/19 09:47:50;;;;;;;;;;;;;;;25.73;25.63;101945.53;1751371;79;20571;-85
2022/05/19 09:50:19;;;;;;;;;;;;;;;25.84;25.57;101942.60;1722734;80;21902;-85
2022/05/19 09:52:46;;;;;;;;;;;;;;;25.90;25.69;101938.45;1717268;81;20898;-85
2022/05/19 09:55:15;;;;;;;;;;;;;;;25.95;25.74;101936.56;1744252;80;20206;-85
2022/05/19 09:57:53;;;;;;;;;;;;;;;26.08;25.58;101940.38;1730094;80;20388;-86
2022/05/19 10:00:38;;;;;;;;;;;;;;;26.23;25.78;101939.16;1744154;79;20459;-85
2022/05/19 10:03:10;;;;;;;;;;;;;;;26.42;25.74;101935.13;1738724;81;21726;-85
2022/05/19 10:05:47;;;;;;;;;;;;;;;26.52;25.41;101935.80;1732997;80;20234;-85
2022/05/19 10:08:21;;;;;;;;;;;;;;;26.52;25.31;101925.91;1749757;79;20576;-86
2022/05/19 10:11:06;;;;;;;;;;;;;;;26.49;25.13;101936.77;1740294;81;20281;-85
2022/05/19 10:13:41;;;;;;;;;;;;;;;26.37;25.34;101931.19;1731425;80;20587;-86
2022/05/19 10:16:33;;;;;;;;;;;;;;;26.24;25.20;101931.47;1731858;80;22598;-86
2022/05/19 10:19:05;;;;;;;;;;;;;;;26.04;25.12;101926.52;1737433;80;21142;-86
2022/05/19 10:21:45;;;;;;;;;;;;;;;25.88;25.38;101922.73;1723437;80;20777;-87
2022/05/19 10:24:17;;;;;;;;;;;;;;;25.82;25.83;101919.28;1735800;80;20467;-85
2022/05/19 10:31:02;;;;;;;;;;;;;;;25.75;25.74;101915.37;1736497;80;20190;-86
2022/05/19 10:32:37;;;;;;;;;;;;;;;25.62;26.26;101903.05;1734645;81;20236;-86
2022/05/19 10:35:21;;;;;;;;;;;;;;;25.53;25.77;101888.41;1737733;80;20213;-86
2022/05/19 10:38:17;;;;;;;;;;;;;;;25.47;25.99;101901.97;1729577;80;20456;-86
2022/05/19 10:41:07;;;;;;;;;;;;;;;25.41;25.92;101890.41;1723931;81;20635;-85
2022/05/19 10:43:55;;;;;;;;;;;;;;;25.35;26.27;101891.84;1737942;81;21881;-85
2022/05/19 10:46:27;;;;;;;;;;;;;;;25.36;26.57;101899.03;1689524;81;20362;-84
2022/05/19 10:49:06;;;;;;;;;;;;;;;25.40;26.59;101895.83;1732591;79;20222;-86
2022/05/19 10:51:39;;;;;;;;;;;;;;;25.43;26.48;101887.66;1706662;81;20559;-85
2022/05/19 10:54:34;;;;;;;;;;;;;;;25.37;26.50;101883.27;1744408;79;20299;-85
2022/05/19 10:57:07;;;;;;;;;;;;;;;25.33;26.80;101884.25;1722042;79;22541;-85
2022/05/19 10:59:43;;;;;;;;;;;;;;;25.30;26.69;101886.11;1725476;80;20229;-86
2022/05/19 11:02:19;;;;;;;;;;;;;;;25.26;27.08;101889.79;1717561;80;20964;-86
2022/05/19 11:05:23;;;;;;;;;;;;;;;25.21;26.94;101877.26;1729027;80;20429;-86
2022/05/19 11:08:08;;;;;;;;;;;;;;;25.20;27.20;101879.51;1716203;82;20593;-86
2022/05/19 11:10:55;;;;;;;;;;;;;;;25.18;27.24;101867.87;1724776;80;22589;-86
2022/05/19 11:13:44;;;;;;;;;;;;;;;25.18;27.20;101868.34;1731641;80;20247;-86
2022/05/19 11:16:46;;;;;;;;;;;;;;;25.20;27.37;101860.65;1730029;80;20197;-85
2022/05/19 11:19:18;;;;;;;;;;;;;;;25.25;27.51;101855.23;1691625;83;20404;-86
2022/05/19 11:21:51;;;;;;;;;;;;;;;25.30;27.50;101852.42;1700478;83;20978;-85
2022/05/19 11:24:32;;;;;;;;;;;;;;;25.31;27.46;101855.56;1708267;80;22039;-86
2022/05/19 11:27:04;;;;;;;;;;;;;;;25.35;27.69;101846.03;1665112;83;20181;-86
2022/05/19 11:29:42;;;;;;;;;;;;;;;25.41;27.60;101838.28;1717879;80;20482;-85
2022/05/19 11:32:22;;;;;;;;;;;;;;;25.52;27.57;101842.12;1696555;81;20545;-85
2022/05/19 11:34:56;;;;;;;;;;;;;;;25.55;27.27;101832.64;1702655;80;20229;-85
2022/05/19 11:37:26;;;;;;;;;;;;;;;25.56;27.26;101829.01;1708531;80;22838;-86
2022/05/19 11:40:13;;;;;;;;;;;;;;;25.59;27.59;101833.00;1724731;80;20205;-86
2022/05/19 11:42:47;;;;;;;;;;;;;;;25.66;27.57;101825.22;1707867;80;20205;-86
2022/05/19 11:45:17;;;;;;;;;;;;;;;25.71;27.26;101828.69;1704977;82;20389;-86
2022/05/19 11:56:10;;;;;;;;;;;;;;;25.93;27.43;101823.76;1695695;81;20985;-85
2022/05/19 11:58:38;;;;;;;;;;;;;;;25.98;26.96;101812.41;1695738;80;20431;-86
2022/05/19 12:01:07;;;;;;;;;;;;;;;26.02;26.96;101814.59;1695822;80;20223;-86
2022/05/19 12:03:57;;;;;;;;;;;;;;;26.04;26.74;101813.20;1700209;80;21822;-86
2022/05/19 12:06:34;;;;;;;;;;;;;;;26.03;26.79;101806.89;1706998;81;20205;-86
2022/05/19 12:09:06;;;;;;;;;;;;;;;26.06;26.93;101813.59;1717410;80;20187;-85
2022/05/19 12:11:47;;;;;;;;;;;;;;;26.10;26.75;101811.23;1697393;80;20474;-86
2022/05/19 12:14:35;;;;;;;;;;;;;;;26.22;26.79;101808.70;1708569;80;20484;-85
2022/05/19 12:17:09;;;;;;;;;;;;;;;26.36;26.83;101803.00;1725211;80;21723;-86
2022/05/19 12:19:39;;;;;;;;;;;;;;;26.59;26.88;101799.72;1711049;80;20166;-86
2022/05/19 12:22:08;;;;;;;;;;;;;;;26.81;26.75;101801.45;1706348;80;20168;-86
2022/05/19 12:24:42;;;;;;;;;;;;;;;27.01;26.82;101797.31;1721898;80;20394;-86
2022/05/19 12:27:26;;;;;;;;;;;;;;;27.22;26.44;101789.11;1698355;80;20165;-86
2022/05/19 12:33:17;;;;;;;;;;;;;;;27.39;26.02;101778.72;1719097;80;21627;-86
2022/05/19 12:35:49;;;;;;;;;;;;;;;27.54;25.76;101774.21;1714316;81;20190;-85
2022/05/19 12:38:33;;;;;;;;;;;;;;;27.77;25.87;101773.11;1698253;81;21396;-86
2022/05/19 12:41:04;;;;;;;;;;;;;;;27.94;25.85;101773.49;1698519;80;20164;-86
2022/05/19 12:43:43;;;;;;;;;;;;;;;28.13;25.69;101768.85;1696458;82;21849;-86
2022/05/19 12:46:12;;;;;;;;;;;;;;;28.23;25.55;101763.09;1694523;82;20247;-86
2022/05/19 12:48:45;;;;;;;;;;;;;;;28.32;25.22;101749.70;1678362;80;20203;-86
2022/05/19 12:51:15;;;;;;;;;;;;;;;28.42;25.30;101744.41;1697297;78;20378;-85
2022/05/19 12:53:51;;;;;;;;;;;;;;;28.52;25.39;101746.80;1694182;82;20212;-87
2022/05/19 12:56:38;;;;;;;;;;;;;;;28.61;25.54;101739.75;1693658;83;21714;-87
2022/05/19 12:59:05;;;;;;;;;;;;;;;28.63;25.36;101731.98;1672878;82;20228;-87
2022/05/19 13:01:37;;;;;;;;;;;;;;;28.61;25.44;101735.69;1693495;82;20219;-86
2022/05/19 13:04:29;;;;;;;;;;;;;;;28.57;25.43;101728.14;1693325;82;21027;-86
2022/05/19 13:07:05;;;;;;;;;;;;;;;28.53;25.37;101725.13;1693314;82;20416;-86
2022/05/19 13:09:33;;;;;;;;;;;;;;;28.49;25.49;101734.23;1693416;82;21748;-86
2022/05/19 13:12:06;;;;;;;;;;;;;;;28.41;25.31;101734.98;1693375;82;20740;-86
2022/05/19 13:14:40;;;;;;;;;;;;;;;28.29;25.37;101726.81;1693205;82;20203;-87
2022/05/19 13:17:08;;;;;;;;;;;;;;;28.21;25.37;101728.87;1693081;83;20367;-86
2022/05/19 13:19:36;;;;;;;;;;;;;;;28.11;25.44;101723.75;1693248;82;20196;-86
2022/05/19 13:22:06;;;;;;;;;;;;;;;28.07;25.68;101722.09;1657414;85;22502;-86
2022/05/19 13:24:35;;;;;;;;;;;;;;;28.03;25.68;101723.13;1661283;84;20813;-87
2022/05/19 13:32:47;;;;;;;;;;;;;;;27.91;25.58;101710.90;1661827;84;20200;-87
2022/05/19 13:35:21;;;;;;;;;;;;;;;27.94;25.62;101713.08;1641430;85;21803;-89
2022/05/19 13:37:48;;;;;;;;;;;;;;;27.94;25.67;101707.67;1662144;84;20526;-86
2022/05/19 13:40:27;;;;;;;;;;;;;;;27.97;25.81;101707.55;1662239;84;20247;-87
2022/05/19 13:42:54;;;;;;;;;;;;;;;28.03;25.67;101710.95;1690654;81;20374;-85
2022/05/19 13:45:23;;;;;;;;;;;;;;;28.06;25.52;101697.34;1687455;83;20318;-86
2022/05/19 13:47:49;;;;;;;;;;;;;;;28.09;25.54;101700.39;1720462;83;21772;-87
2022/05/19 13:50:21;;;;;;;;;;;;;;;28.12;25.52;101701.66;1629706;84;20223;-87
2022/05/19 13:52:53;;;;;;;;;;;;;;;28.14;25.28;101689.40;1693052;83;20934;-84